sensor_id;sensor_type;location;lat;lon;timestamp;P1;durP1;ratioP1;P2;durP2;ratioP2
47659;SDS011;33403;43.608;1.458;2022-11-24T00:00:51;19.55;;;6.93;;
47659;SDS011;33403;43.608;1.458;2022-11-24T00:03:17;24.33;;;7.25;;
47659;SDS011;33403;43.608;1.458;2022-11-24T00:05:44;19.40;;;6.80;;
47659;SDS011;33403;43.608;1.458;2022-11-24T00:08:10;22.98;;;6.97;;
47659;SDS011;33403;43.608;1.458;2022-11-24T00:10:36;21.42;;;6.85;;
47659;SDS011;33403;43.608;1.458;2022-11-24T00:13:02;23.58;;;6.43;;
47659;SDS011;33403;43.608;1.458;2022-11-24T00:15:28;16.60;;;5.47;;
47659;SDS011;33403;43.608;1.458;2022-11-24T00:17:54;20.23;;;5.85;;
47659;SDS011;33403;43.608;1.458;2022-11-24T00:20:21;28.15;;;6.35;;
47659;SDS011;33403;43.608;1.458;2022-11-24T00:22:47;21.83;;;6.40;;
47659;SDS011;33403;43.608;1.458;2022-11-24T00:25:13;21.20;;;6.10;;
47659;SDS011;33403;43.608;1.458;2022-11-24T00:27:39;21.52;;;6.38;;
47659;SDS011;33403;43.608;1.458;2022-11-24T00:30:05;24.55;;;6.50;;
47659;SDS011;33403;43.608;1.458;2022-11-24T00:32:31;16.33;;;5.88;;
47659;SDS011;33403;43.608;1.458;2022-11-24T00:34:57;29.83;;;6.55;;
47659;SDS011;33403;43.608;1.458;2022-11-24T00:37:23;21.65;;;6.50;;
47659;SDS011;33403;43.608;1.458;2022-11-24T00:39:49;18.45;;;5.75;;
47659;SDS011;33403;43.608;1.458;2022-11-24T00:42:15;21.92;;;5.97;;
47659;SDS011;33403;43.608;1.458;2022-11-24T00:44:42;21.13;;;5.95;;
47659;SDS011;33403;43.608;1.458;2022-11-24T00:47:08;18.02;;;5.65;;
47659;SDS011;33403;43.608;1.458;2022-11-24T00:49:34;21.63;;;5.80;;
47659;SDS011;33403;43.608;1.458;2022-11-24T00:52:00;21.00;;;6.43;;
47659;SDS011;33403;43.608;1.458;2022-11-24T00:54:26;16.70;;;5.72;;
47659;SDS011;33403;43.608;1.458;2022-11-24T00:56:52;23.00;;;5.85;;
47659;SDS011;33403;43.608;1.458;2022-11-24T00:59:18;23.42;;;5.63;;
47659;SDS011;33403;43.608;1.458;2022-11-24T01:01:44;17.92;;;5.47;;
47659;SDS011;33403;43.608;1.458;2022-11-24T01:04:10;17.38;;;5.45;;
47659;SDS011;33403;43.608;1.458;2022-11-24T01:06:36;18.88;;;5.28;;
47659;SDS011;33403;43.608;1.458;2022-11-24T01:09:02;15.70;;;4.88;;
47659;SDS011;33403;43.608;1.458;2022-11-24T01:11:32;21.17;;;5.85;;
47659;SDS011;33403;43.608;1.458;2022-11-24T01:14:18;21.02;;;4.90;;
47659;SDS011;33403;43.608;1.458;2022-11-24T01:16:44;15.35;;;5.35;;
47659;SDS011;33403;43.608;1.458;2022-11-24T01:19:10;19.30;;;5.35;;
47659;SDS011;33403;43.608;1.458;2022-11-24T01:21:36;22.97;;;5.27;;
47659;SDS011;33403;43.608;1.458;2022-11-24T01:24:02;20.92;;;5.43;;
47659;SDS011;33403;43.608;1.458;2022-11-24T01:26:28;15.05;;;4.63;;
47659;SDS011;33403;43.608;1.458;2022-11-24T01:28:54;18.27;;;5.15;;
47659;SDS011;33403;43.608;1.458;2022-11-24T01:31:21;18.80;;;5.25;;
47659;SDS011;33403;43.608;1.458;2022-11-24T01:33:47;18.05;;;4.70;;
47659;SDS011;33403;43.608;1.458;2022-11-24T01:36:13;13.83;;;4.13;;
47659;SDS011;33403;43.608;1.458;2022-11-24T01:38:39;16.97;;;4.43;;
47659;SDS011;33403;43.608;1.458;2022-11-24T01:43:34;14.40;;;3.83;;
47659;SDS011;33403;43.608;1.458;2022-11-24T01:46:02;15.05;;;4.28;;
47659;SDS011;33403;43.608;1.458;2022-11-24T01:48:30;16.43;;;4.17;;
47659;SDS011;33403;43.608;1.458;2022-11-24T01:51:40;18.35;;;4.63;;
47659;SDS011;33403;43.608;1.458;2022-11-24T01:53:55;15.77;;;3.83;;
47659;SDS011;33403;43.608;1.458;2022-11-24T01:56:22;17.85;;;4.47;;
47659;SDS011;33403;43.608;1.458;2022-11-24T01:58:48;13.80;;;4.07;;
47659;SDS011;33403;43.608;1.458;2022-11-24T02:01:16;15.15;;;3.78;;
47659;SDS011;33403;43.608;1.458;2022-11-24T02:03:42;12.00;;;3.85;;
47659;SDS011;33403;43.608;1.458;2022-11-24T02:06:12;17.13;;;4.05;;
47659;SDS011;33403;43.608;1.458;2022-11-24T02:08:50;16.45;;;4.07;;
47659;SDS011;33403;43.608;1.458;2022-11-24T02:11:16;13.98;;;3.70;;
47659;SDS011;33403;43.608;1.458;2022-11-24T02:13:43;13.05;;;3.88;;
47659;SDS011;33403;43.608;1.458;2022-11-24T02:16:10;17.23;;;3.63;;
47659;SDS011;33403;43.608;1.458;2022-11-24T02:18:37;18.40;;;4.13;;
47659;SDS011;33403;43.608;1.458;2022-11-24T02:21:03;16.60;;;4.32;;
47659;SDS011;33403;43.608;1.458;2022-11-24T02:28:49;18.83;;;4.30;;
47659;SDS011;33403;43.608;1.458;2022-11-24T02:31:16;14.07;;;4.18;;
47659;SDS011;33403;43.608;1.458;2022-11-24T02:33:42;13.82;;;4.32;;
47659;SDS011;33403;43.608;1.458;2022-11-24T02:36:08;14.52;;;4.05;;
47659;SDS011;33403;43.608;1.458;2022-11-24T02:38:34;14.85;;;4.18;;
47659;SDS011;33403;43.608;1.458;2022-11-24T02:41:04;12.50;;;4.10;;
47659;SDS011;33403;43.608;1.458;2022-11-24T02:43:33;18.67;;;4.80;;
47659;SDS011;33403;43.608;1.458;2022-11-24T02:46:00;15.70;;;4.07;;
47659;SDS011;33403;43.608;1.458;2022-11-24T02:48:26;10.63;;;3.90;;
47659;SDS011;33403;43.608;1.458;2022-11-24T02:50:52;11.27;;;4.10;;
47659;SDS011;33403;43.608;1.458;2022-11-24T02:53:18;12.17;;;3.90;;
47659;SDS011;33403;43.608;1.458;2022-11-24T02:55:44;14.93;;;4.25;;
47659;SDS011;33403;43.608;1.458;2022-11-24T02:58:10;13.70;;;4.27;;
47659;SDS011;33403;43.608;1.458;2022-11-24T03:00:38;14.00;;;4.27;;
47659;SDS011;33403;43.608;1.458;2022-11-24T03:03:04;15.20;;;4.43;;
47659;SDS011;33403;43.608;1.458;2022-11-24T03:05:30;13.07;;;4.00;;
47659;SDS011;33403;43.608;1.458;2022-11-24T03:07:56;12.87;;;4.23;;
47659;SDS011;33403;43.608;1.458;2022-11-24T03:10:22;12.57;;;4.57;;
47659;SDS011;33403;43.608;1.458;2022-11-24T03:12:48;11.87;;;3.90;;
47659;SDS011;33403;43.608;1.458;2022-11-24T03:15:14;13.80;;;4.43;;
47659;SDS011;33403;43.608;1.458;2022-11-24T03:17:40;13.90;;;4.47;;
47659;SDS011;33403;43.608;1.458;2022-11-24T03:20:07;11.17;;;4.30;;
47659;SDS011;33403;43.608;1.458;2022-11-24T03:22:33;14.87;;;4.60;;
47659;SDS011;33403;43.608;1.458;2022-11-24T03:24:59;11.60;;;4.30;;
47659;SDS011;33403;43.608;1.458;2022-11-24T03:27:25;12.70;;;4.50;;
47659;SDS011;33403;43.608;1.458;2022-11-24T03:29:51;15.67;;;4.53;;
47659;SDS011;33403;43.608;1.458;2022-11-24T03:32:17;15.47;;;5.00;;
47659;SDS011;33403;43.608;1.458;2022-11-24T03:34:43;15.03;;;4.60;;
47659;SDS011;33403;43.608;1.458;2022-11-24T03:37:09;13.97;;;4.43;;
47659;SDS011;33403;43.608;1.458;2022-11-24T03:39:35;14.30;;;4.33;;
47659;SDS011;33403;43.608;1.458;2022-11-24T03:42:01;11.13;;;4.03;;
47659;SDS011;33403;43.608;1.458;2022-11-24T03:44:27;13.57;;;4.10;;
47659;SDS011;33403;43.608;1.458;2022-11-24T03:46:53;14.77;;;4.30;;
47659;SDS011;33403;43.608;1.458;2022-11-24T03:49:19;15.03;;;4.00;;
47659;SDS011;33403;43.608;1.458;2022-11-24T03:51:46;13.17;;;4.10;;
47659;SDS011;33403;43.608;1.458;2022-11-24T03:54:12;16.20;;;3.90;;
47659;SDS011;33403;43.608;1.458;2022-11-24T03:56:38;11.00;;;3.70;;
47659;SDS011;33403;43.608;1.458;2022-11-24T03:59:04;8.40;;;3.57;;
47659;SDS011;33403;43.608;1.458;2022-11-24T04:01:30;9.87;;;4.20;;
47659;SDS011;33403;43.608;1.458;2022-11-24T04:03:56;13.13;;;3.87;;
47659;SDS011;33403;43.608;1.458;2022-11-24T04:06:22;10.13;;;3.60;;
47659;SDS011;33403;43.608;1.458;2022-11-24T04:08:48;11.67;;;3.77;;
47659;SDS011;33403;43.608;1.458;2022-11-24T04:11:14;11.23;;;3.50;;
47659;SDS011;33403;43.608;1.458;2022-11-24T04:13:59;10.90;;;3.67;;
47659;SDS011;33403;43.608;1.458;2022-11-24T04:16:25;10.27;;;4.10;;
47659;SDS011;33403;43.608;1.458;2022-11-24T04:18:51;11.90;;;4.20;;
47659;SDS011;33403;43.608;1.458;2022-11-24T04:21:18;9.00;;;4.00;;
47659;SDS011;33403;43.608;1.458;2022-11-24T04:23:44;9.88;;;3.60;;
47659;SDS011;33403;43.608;1.458;2022-11-24T04:26:10;11.27;;;4.10;;
47659;SDS011;33403;43.608;1.458;2022-11-24T04:28:36;8.77;;;3.78;;
47659;SDS011;33403;43.608;1.458;2022-11-24T04:31:05;7.40;;;3.57;;
47659;SDS011;33403;43.608;1.458;2022-11-24T04:33:31;11.35;;;3.83;;
47659;SDS011;33403;43.608;1.458;2022-11-24T04:35:57;11.13;;;3.80;;
47659;SDS011;33403;43.608;1.458;2022-11-24T04:38:23;11.13;;;3.95;;
47659;SDS011;33403;43.608;1.458;2022-11-24T04:40:50;10.07;;;3.80;;
47659;SDS011;33403;43.608;1.458;2022-11-24T04:43:16;11.70;;;3.90;;
47659;SDS011;33403;43.608;1.458;2022-11-24T04:45:43;11.37;;;3.90;;
47659;SDS011;33403;43.608;1.458;2022-11-24T04:48:09;13.47;;;4.20;;
47659;SDS011;33403;43.608;1.458;2022-11-24T04:50:35;11.53;;;4.43;;
47659;SDS011;33403;43.608;1.458;2022-11-24T04:53:02;8.40;;;4.10;;
47659;SDS011;33403;43.608;1.458;2022-11-24T04:55:28;11.10;;;4.33;;
47659;SDS011;33403;43.608;1.458;2022-11-24T04:57:54;11.27;;;4.27;;
47659;SDS011;33403;43.608;1.458;2022-11-24T05:00:20;8.40;;;3.80;;
47659;SDS011;33403;43.608;1.458;2022-11-24T05:02:46;13.70;;;3.73;;
47659;SDS011;33403;43.608;1.458;2022-11-24T05:05:12;10.10;;;3.57;;
47659;SDS011;33403;43.608;1.458;2022-11-24T05:07:38;8.90;;;4.30;;
47659;SDS011;33403;43.608;1.458;2022-11-24T05:10:04;15.10;;;4.40;;
47659;SDS011;33403;43.608;1.458;2022-11-24T05:12:53;10.67;;;4.33;;
47659;SDS011;33403;43.608;1.458;2022-11-24T05:15:20;14.73;;;3.90;;
47659;SDS011;33403;43.608;1.458;2022-11-24T05:17:46;9.67;;;3.53;;
47659;SDS011;33403;43.608;1.458;2022-11-24T05:20:12;9.37;;;3.90;;
47659;SDS011;33403;43.608;1.458;2022-11-24T05:22:38;9.27;;;3.87;;
47659;SDS011;33403;43.608;1.458;2022-11-24T05:25:04;9.73;;;3.70;;
47659;SDS011;33403;43.608;1.458;2022-11-24T05:27:30;10.23;;;3.50;;
47659;SDS011;33403;43.608;1.458;2022-11-24T05:29:56;12.17;;;4.33;;
47659;SDS011;33403;43.608;1.458;2022-11-24T05:32:22;12.37;;;3.87;;
47659;SDS011;33403;43.608;1.458;2022-11-24T05:34:48;10.53;;;3.93;;
47659;SDS011;33403;43.608;1.458;2022-11-24T05:37:14;9.43;;;3.83;;
47659;SDS011;33403;43.608;1.458;2022-11-24T05:39:41;10.77;;;3.67;;
47659;SDS011;33403;43.608;1.458;2022-11-24T05:42:07;9.87;;;3.50;;
47659;SDS011;33403;43.608;1.458;2022-11-24T05:44:52;8.53;;;3.40;;
47659;SDS011;33403;43.608;1.458;2022-11-24T05:47:18;9.80;;;3.67;;
47659;SDS011;33403;43.608;1.458;2022-11-24T05:49:44;12.47;;;3.73;;
47659;SDS011;33403;43.608;1.458;2022-11-24T05:52:10;9.27;;;3.47;;
47659;SDS011;33403;43.608;1.458;2022-11-24T05:54:37;10.50;;;3.60;;
47659;SDS011;33403;43.608;1.458;2022-11-24T05:57:03;7.87;;;3.40;;
47659;SDS011;33403;43.608;1.458;2022-11-24T05:59:29;7.53;;;2.90;;
47659;SDS011;33403;43.608;1.458;2022-11-24T06:01:55;14.33;;;3.80;;
47659;SDS011;33403;43.608;1.458;2022-11-24T06:04:21;6.40;;;3.03;;
47659;SDS011;33403;43.608;1.458;2022-11-24T06:06:47;7.90;;;3.30;;
47659;SDS011;33403;43.608;1.458;2022-11-24T06:09:13;7.50;;;3.37;;
47659;SDS011;33403;43.608;1.458;2022-11-24T06:11:39;8.30;;;2.97;;
47659;SDS011;33403;43.608;1.458;2022-11-24T06:14:05;9.43;;;3.30;;
47659;SDS011;33403;43.608;1.458;2022-11-24T06:16:31;10.33;;;3.10;;
47659;SDS011;33403;43.608;1.458;2022-11-24T06:18:57;8.83;;;3.37;;
47659;SDS011;33403;43.608;1.458;2022-11-24T06:21:24;12.83;;;3.40;;
47659;SDS011;33403;43.608;1.458;2022-11-24T06:23:50;9.93;;;3.30;;
47659;SDS011;33403;43.608;1.458;2022-11-24T06:26:16;10.07;;;3.90;;
47659;SDS011;33403;43.608;1.458;2022-11-24T06:28:42;7.63;;;3.50;;
47659;SDS011;33403;43.608;1.458;2022-11-24T06:31:08;11.13;;;3.80;;
47659;SDS011;33403;43.608;1.458;2022-11-24T06:33:36;9.00;;;3.90;;
47659;SDS011;33403;43.608;1.458;2022-11-24T06:36:03;11.83;;;4.07;;
47659;SDS011;33403;43.608;1.458;2022-11-24T06:38:29;11.90;;;4.23;;
47659;SDS011;33403;43.608;1.458;2022-11-24T06:41:29;13.77;;;4.57;;
47659;SDS011;33403;43.608;1.458;2022-11-24T06:43:48;12.00;;;5.90;;
47659;SDS011;33403;43.608;1.458;2022-11-24T06:46:14;16.87;;;5.83;;
47659;SDS011;33403;43.608;1.458;2022-11-24T06:48:40;12.67;;;5.70;;
47659;SDS011;33403;43.608;1.458;2022-11-24T06:51:06;14.70;;;5.63;;
47659;SDS011;33403;43.608;1.458;2022-11-24T06:53:33;8.23;;;4.77;;
47659;SDS011;33403;43.608;1.458;2022-11-24T06:56:02;12.97;;;5.70;;
47659;SDS011;33403;43.608;1.458;2022-11-24T06:58:29;15.90;;;5.47;;
47659;SDS011;33403;43.608;1.458;2022-11-24T07:00:55;10.43;;;4.60;;
47659;SDS011;33403;43.608;1.458;2022-11-24T07:03:21;14.80;;;5.30;;
47659;SDS011;33403;43.608;1.458;2022-11-24T07:05:47;14.60;;;5.63;;
47659;SDS011;33403;43.608;1.458;2022-11-24T07:08:13;13.23;;;4.50;;
47659;SDS011;33403;43.608;1.458;2022-11-24T07:10:39;13.63;;;4.03;;
47659;SDS011;33403;43.608;1.458;2022-11-24T07:13:08;11.07;;;4.40;;
47659;SDS011;33403;43.608;1.458;2022-11-24T07:15:34;12.73;;;4.70;;
47659;SDS011;33403;43.608;1.458;2022-11-24T07:18:00;14.17;;;5.57;;
47659;SDS011;33403;43.608;1.458;2022-11-24T07:20:27;20.83;;;6.20;;
47659;SDS011;33403;43.608;1.458;2022-11-24T07:22:56;14.20;;;4.87;;
47659;SDS011;33403;43.608;1.458;2022-11-24T07:25:23;14.13;;;4.93;;
47659;SDS011;33403;43.608;1.458;2022-11-24T07:27:53;15.10;;;5.00;;
47659;SDS011;33403;43.608;1.458;2022-11-24T07:30:19;13.07;;;4.60;;
47659;SDS011;33403;43.608;1.458;2022-11-24T07:32:45;11.47;;;4.70;;
47659;SDS011;33403;43.608;1.458;2022-11-24T07:35:11;14.67;;;5.57;;
47659;SDS011;33403;43.608;1.458;2022-11-24T07:37:37;14.87;;;5.60;;
47659;SDS011;33403;43.608;1.458;2022-11-24T07:40:04;14.53;;;6.13;;
47659;SDS011;33403;43.608;1.458;2022-11-24T07:42:30;17.23;;;6.40;;
47659;SDS011;33403;43.608;1.458;2022-11-24T07:44:56;15.10;;;5.40;;
47659;SDS011;33403;43.608;1.458;2022-11-24T07:47:23;11.87;;;5.30;;
47659;SDS011;33403;43.608;1.458;2022-11-24T07:49:49;12.13;;;5.70;;
47659;SDS011;33403;43.608;1.458;2022-11-24T07:52:15;12.80;;;5.30;;
47659;SDS011;33403;43.608;1.458;2022-11-24T07:54:41;12.43;;;5.30;;
47659;SDS011;33403;43.608;1.458;2022-11-24T07:57:07;15.37;;;5.63;;
47659;SDS011;33403;43.608;1.458;2022-11-24T07:59:33;17.70;;;5.40;;
47659;SDS011;33403;43.608;1.458;2022-11-24T08:01:59;13.00;;;5.57;;
47659;SDS011;33403;43.608;1.458;2022-11-24T08:04:25;10.77;;;4.90;;
47659;SDS011;33403;43.608;1.458;2022-11-24T08:06:51;16.07;;;5.83;;
47659;SDS011;33403;43.608;1.458;2022-11-24T08:09:17;12.67;;;5.53;;
47659;SDS011;33403;43.608;1.458;2022-11-24T08:11:43;12.03;;;5.90;;
47659;SDS011;33403;43.608;1.458;2022-11-24T08:14:09;9.53;;;5.47;;
47659;SDS011;33403;43.608;1.458;2022-11-24T08:16:35;11.37;;;5.30;;
47659;SDS011;33403;43.608;1.458;2022-11-24T08:19:02;12.63;;;6.27;;
47659;SDS011;33403;43.608;1.458;2022-11-24T08:21:28;17.43;;;7.63;;
47659;SDS011;33403;43.608;1.458;2022-11-24T08:23:55;17.97;;;9.07;;
47659;SDS011;33403;43.608;1.458;2022-11-24T08:26:21;17.00;;;7.57;;
47659;SDS011;33403;43.608;1.458;2022-11-24T08:28:53;13.43;;;7.07;;
47659;SDS011;33403;43.608;1.458;2022-11-24T08:31:19;16.93;;;7.70;;
47659;SDS011;33403;43.608;1.458;2022-11-24T08:33:45;16.00;;;7.57;;
47659;SDS011;33403;43.608;1.458;2022-11-24T08:36:16;15.40;;;7.77;;
47659;SDS011;33403;43.608;1.458;2022-11-24T08:38:43;16.17;;;6.40;;
47659;SDS011;33403;43.608;1.458;2022-11-24T08:41:10;15.17;;;6.87;;
47659;SDS011;33403;43.608;1.458;2022-11-24T08:43:36;14.05;;;5.65;;
47659;SDS011;33403;43.608;1.458;2022-11-24T08:46:13;14.17;;;5.63;;
47659;SDS011;33403;43.608;1.458;2022-11-24T08:48:41;16.67;;;4.83;;
47659;SDS011;33403;43.608;1.458;2022-11-24T08:51:11;13.98;;;4.78;;
47659;SDS011;33403;43.608;1.458;2022-11-24T08:53:38;9.43;;;4.43;;
47659;SDS011;33403;43.608;1.458;2022-11-24T08:56:05;8.52;;;3.97;;
47659;SDS011;33403;43.608;1.458;2022-11-24T08:58:31;13.20;;;5.13;;
47659;SDS011;33403;43.608;1.458;2022-11-24T09:01:05;9.05;;;4.38;;
47659;SDS011;33403;43.608;1.458;2022-11-24T09:03:31;10.85;;;4.72;;
47659;SDS011;33403;43.608;1.458;2022-11-24T09:05:58;12.52;;;4.90;;
47659;SDS011;33403;43.608;1.458;2022-11-24T09:08:24;12.18;;;4.53;;
47659;SDS011;33403;43.608;1.458;2022-11-24T09:10:50;9.60;;;4.38;;
47659;SDS011;33403;43.608;1.458;2022-11-24T09:13:16;10.63;;;4.10;;
47659;SDS011;33403;43.608;1.458;2022-11-24T09:15:42;11.55;;;4.60;;
47659;SDS011;33403;43.608;1.458;2022-11-24T09:18:08;13.65;;;4.45;;
47659;SDS011;33403;43.608;1.458;2022-11-24T09:20:35;16.77;;;5.05;;
47659;SDS011;33403;43.608;1.458;2022-11-24T09:23:00;13.30;;;4.38;;
47659;SDS011;33403;43.608;1.458;2022-11-24T09:25:26;12.85;;;4.38;;
47659;SDS011;33403;43.608;1.458;2022-11-24T09:27:53;10.70;;;4.03;;
47659;SDS011;33403;43.608;1.458;2022-11-24T09:30:20;12.05;;;4.72;;
47659;SDS011;33403;43.608;1.458;2022-11-24T09:32:47;10.95;;;4.22;;
47659;SDS011;33403;43.608;1.458;2022-11-24T09:35:13;9.57;;;4.75;;
47659;SDS011;33403;43.608;1.458;2022-11-24T09:37:39;14.32;;;5.28;;
47659;SDS011;33403;43.608;1.458;2022-11-24T09:40:08;11.07;;;4.47;;
47659;SDS011;33403;43.608;1.458;2022-11-24T09:43:18;9.02;;;4.05;;
47659;SDS011;33403;43.608;1.458;2022-11-24T09:48:07;13.02;;;5.05;;
47659;SDS011;33403;43.608;1.458;2022-11-24T09:50:35;12.80;;;5.13;;
47659;SDS011;33403;43.608;1.458;2022-11-24T09:53:11;12.55;;;5.40;;
47659;SDS011;33403;43.608;1.458;2022-11-24T09:55:49;12.85;;;5.07;;
47659;SDS011;33403;43.608;1.458;2022-11-24T09:58:17;14.27;;;5.45;;
47659;SDS011;33403;43.608;1.458;2022-11-24T10:00:47;15.57;;;6.53;;
47659;SDS011;33403;43.608;1.458;2022-11-24T10:03:36;14.93;;;6.32;;
47659;SDS011;33403;43.608;1.458;2022-11-24T10:06:01;19.08;;;6.80;;
47659;SDS011;33403;43.608;1.458;2022-11-24T10:11:18;14.70;;;5.95;;
47659;SDS011;33403;43.608;1.458;2022-11-24T10:13:53;12.88;;;5.68;;
47659;SDS011;33403;43.608;1.458;2022-11-24T10:27:18;11.85;;;4.20;;
47659;SDS011;33403;43.608;1.458;2022-11-24T10:29:50;12.02;;;4.05;;
47659;SDS011;33403;43.608;1.458;2022-11-24T10:32:17;10.30;;;4.47;;
47659;SDS011;33403;43.608;1.458;2022-11-24T10:34:45;12.05;;;4.97;;
47659;SDS011;33403;43.608;1.458;2022-11-24T10:42:33;12.70;;;5.45;;
47659;SDS011;33403;43.608;1.458;2022-11-24T10:45:01;13.90;;;5.90;;
47659;SDS011;33403;43.608;1.458;2022-11-24T10:47:28;16.75;;;5.40;;
47659;SDS011;33403;43.608;1.458;2022-11-24T10:50:02;15.93;;;5.38;;
47659;SDS011;33403;43.608;1.458;2022-11-24T10:52:29;15.52;;;4.97;;
47659;SDS011;33403;43.608;1.458;2022-11-24T10:57:56;15.90;;;5.60;;
47659;SDS011;33403;43.608;1.458;2022-11-24T11:02:44;16.35;;;5.38;;
47659;SDS011;33403;43.608;1.458;2022-11-24T11:10:40;11.50;;;3.97;;
47659;SDS011;33403;43.608;1.458;2022-11-24T11:13:23;10.60;;;4.13;;
47659;SDS011;33403;43.608;1.458;2022-11-24T11:15:49;10.95;;;3.92;;
47659;SDS011;33403;43.608;1.458;2022-11-24T11:18:16;11.98;;;4.15;;
47659;SDS011;33403;43.608;1.458;2022-11-24T11:20:52;10.52;;;4.10;;
47659;SDS011;33403;43.608;1.458;2022-11-24T11:23:24;12.52;;;3.70;;
47659;SDS011;33403;43.608;1.458;2022-11-24T11:25:58;10.75;;;3.80;;
47659;SDS011;33403;43.608;1.458;2022-11-24T11:28:37;7.88;;;3.50;;
47659;SDS011;33403;43.608;1.458;2022-11-24T11:31:04;11.13;;;3.40;;
47659;SDS011;33403;43.608;1.458;2022-11-24T11:33:31;11.27;;;3.25;;
47659;SDS011;33403;43.608;1.458;2022-11-24T11:35:57;9.60;;;3.10;;
47659;SDS011;33403;43.608;1.458;2022-11-24T11:38:26;10.65;;;3.50;;
47659;SDS011;33403;43.608;1.458;2022-11-24T11:40:55;14.82;;;3.45;;
47659;SDS011;33403;43.608;1.458;2022-11-24T11:45:49;9.98;;;3.28;;
47659;SDS011;33403;43.608;1.458;2022-11-24T11:50:54;9.60;;;3.15;;
47659;SDS011;33403;43.608;1.458;2022-11-24T11:55:52;6.75;;;2.85;;
47659;SDS011;33403;43.608;1.458;2022-11-24T12:11:23;10.77;;;3.28;;
47659;SDS011;33403;43.608;1.458;2022-11-24T12:13:55;9.95;;;3.53;;
47659;SDS011;33403;43.608;1.458;2022-11-24T12:16:28;10.55;;;3.50;;
47659;SDS011;33403;43.608;1.458;2022-11-24T12:19:01;10.73;;;3.40;;
47659;SDS011;33403;43.608;1.458;2022-11-24T12:34:01;10.68;;;2.92;;
47659;SDS011;33403;43.608;1.458;2022-11-24T12:39:04;7.68;;;2.50;;
47659;SDS011;33403;43.608;1.458;2022-11-24T12:44:21;10.52;;;2.47;;
47659;SDS011;33403;43.608;1.458;2022-11-24T12:47:02;8.68;;;2.42;;
47659;SDS011;33403;43.608;1.458;2022-11-24T12:49:49;7.55;;;2.40;;
47659;SDS011;33403;43.608;1.458;2022-11-24T12:52:28;11.02;;;2.70;;
47659;SDS011;33403;43.608;1.458;2022-11-24T12:54:56;10.32;;;2.40;;
47659;SDS011;33403;43.608;1.458;2022-11-24T12:57:33;10.38;;;2.40;;
47659;SDS011;33403;43.608;1.458;2022-11-24T13:00:05;8.32;;;2.35;;
47659;SDS011;33403;43.608;1.458;2022-11-24T13:05:21;8.18;;;2.08;;
47659;SDS011;33403;43.608;1.458;2022-11-24T13:07:49;8.70;;;2.70;;
47659;SDS011;33403;43.608;1.458;2022-11-24T13:13:06;10.30;;;2.33;;
47659;SDS011;33403;43.608;1.458;2022-11-24T13:21:02;9.00;;;2.65;;
47659;SDS011;33403;43.608;1.458;2022-11-24T13:23:28;9.57;;;2.50;;
47659;SDS011;33403;43.608;1.458;2022-11-24T13:26:13;12.07;;;2.47;;
47659;SDS011;33403;43.608;1.458;2022-11-24T13:29:00;7.60;;;2.50;;
47659;SDS011;33403;43.608;1.458;2022-11-24T13:31:28;9.35;;;2.40;;
47659;SDS011;33403;43.608;1.458;2022-11-24T13:33:54;10.57;;;2.63;;
47659;SDS011;33403;43.608;1.458;2022-11-24T13:49:22;11.80;;;2.47;;
47659;SDS011;33403;43.608;1.458;2022-11-24T13:51:52;11.63;;;2.67;;
47659;SDS011;33403;43.608;1.458;2022-11-24T13:54:26;9.02;;;2.38;;
47659;SDS011;33403;43.608;1.458;2022-11-24T13:56:58;9.40;;;2.53;;
47659;SDS011;33403;43.608;1.458;2022-11-24T13:59:39;10.55;;;2.70;;
47659;SDS011;33403;43.608;1.458;2022-11-24T14:02:13;13.27;;;2.42;;
47659;SDS011;33403;43.608;1.458;2022-11-24T14:04:44;11.25;;;2.72;;
47659;SDS011;33403;43.608;1.458;2022-11-24T14:07:10;7.88;;;2.10;;
47659;SDS011;33403;43.608;1.458;2022-11-24T14:09:48;9.52;;;2.38;;
47659;SDS011;33403;43.608;1.458;2022-11-24T14:12:21;10.82;;;2.50;;
47659;SDS011;33403;43.608;1.458;2022-11-24T14:14:48;8.95;;;2.30;;
47659;SDS011;33403;43.608;1.458;2022-11-24T14:17:21;9.48;;;2.40;;
47659;SDS011;33403;43.608;1.458;2022-11-24T14:19:49;10.43;;;2.60;;
47659;SDS011;33403;43.608;1.458;2022-11-24T14:22:48;8.25;;;2.30;;
47659;SDS011;33403;43.608;1.458;2022-11-24T14:25:29;9.00;;;2.47;;
47659;SDS011;33403;43.608;1.458;2022-11-24T14:27:54;7.40;;;2.67;;
47659;SDS011;33403;43.608;1.458;2022-11-24T14:30:21;11.77;;;2.95;;
47659;SDS011;33403;43.608;1.458;2022-11-24T14:33:00;8.73;;;2.47;;
47659;SDS011;33403;43.608;1.458;2022-11-24T14:35:41;9.40;;;2.63;;
47659;SDS011;33403;43.608;1.458;2022-11-24T14:38:15;7.18;;;2.00;;
47659;SDS011;33403;43.608;1.458;2022-11-24T14:40:43;9.75;;;2.42;;
47659;SDS011;33403;43.608;1.458;2022-11-24T14:46:09;11.13;;;2.80;;
47659;SDS011;33403;43.608;1.458;2022-11-24T14:48:38;7.82;;;2.60;;
47659;SDS011;33403;43.608;1.458;2022-11-24T14:53:31;9.80;;;2.42;;
47659;SDS011;33403;43.608;1.458;2022-11-24T14:56:07;12.63;;;2.67;;
47659;SDS011;33403;43.608;1.458;2022-11-24T14:58:33;8.75;;;2.60;;
47659;SDS011;33403;43.608;1.458;2022-11-24T15:01:15;8.35;;;2.47;;
47659;SDS011;33403;43.608;1.458;2022-11-24T15:03:43;8.02;;;2.20;;
47659;SDS011;33403;43.608;1.458;2022-11-24T15:06:16;8.60;;;2.60;;
47659;SDS011;33403;43.608;1.458;2022-11-24T15:08:44;9.95;;;3.03;;
47659;SDS011;33403;43.608;1.458;2022-11-24T15:11:11;9.23;;;2.45;;
47659;SDS011;33403;43.608;1.458;2022-11-24T15:13:38;11.35;;;3.65;;
47659;SDS011;33403;43.608;1.458;2022-11-24T15:16:13;10.70;;;3.33;;
47659;SDS011;33403;43.608;1.458;2022-11-24T15:18:40;10.88;;;3.05;;
47659;SDS011;33403;43.608;1.458;2022-11-24T15:21:07;19.15;;;4.15;;
47659;SDS011;33403;43.608;1.458;2022-11-24T15:23:33;27.27;;;4.93;;
47659;SDS011;33403;43.608;1.458;2022-11-24T15:28:26;16.10;;;3.45;;
47659;SDS011;33403;43.608;1.458;2022-11-24T15:30:54;22.85;;;5.43;;
47659;SDS011;33403;43.608;1.458;2022-11-24T15:33:21;26.05;;;5.07;;
47659;SDS011;33403;43.608;1.458;2022-11-24T15:35:47;18.30;;;3.95;;
47659;SDS011;33403;43.608;1.458;2022-11-24T15:38:13;13.02;;;4.03;;
47659;SDS011;33403;43.608;1.458;2022-11-24T15:40:41;19.40;;;4.63;;
47659;SDS011;33403;43.608;1.458;2022-11-24T15:43:49;15.50;;;3.90;;
47659;SDS011;33403;43.608;1.458;2022-11-24T15:45:57;13.45;;;4.03;;
47659;SDS011;33403;43.608;1.458;2022-11-24T15:48:23;15.90;;;4.22;;
47659;SDS011;33403;43.608;1.458;2022-11-24T15:50:49;12.23;;;3.95;;
47659;SDS011;33403;43.608;1.458;2022-11-24T15:53:17;17.77;;;4.05;;
47659;SDS011;33403;43.608;1.458;2022-11-24T15:55:44;10.23;;;3.47;;
47659;SDS011;33403;43.608;1.458;2022-11-24T15:58:11;9.60;;;3.35;;
47659;SDS011;33403;43.608;1.458;2022-11-24T16:00:38;11.98;;;3.65;;
47659;SDS011;33403;43.608;1.458;2022-11-24T16:03:04;9.07;;;3.83;;
47659;SDS011;33403;43.608;1.458;2022-11-24T16:05:30;11.20;;;3.45;;
47659;SDS011;33403;43.608;1.458;2022-11-24T16:07:56;12.48;;;3.65;;
47659;SDS011;33403;43.608;1.458;2022-11-24T16:10:27;8.48;;;3.55;;
47659;SDS011;33403;43.608;1.458;2022-11-24T16:12:54;10.10;;;3.85;;
47659;SDS011;33403;43.608;1.458;2022-11-24T16:15:20;14.02;;;4.30;;
47659;SDS011;33403;43.608;1.458;2022-11-24T16:17:46;15.95;;;4.72;;
47659;SDS011;33403;43.608;1.458;2022-11-24T16:20:12;14.82;;;4.10;;
47659;SDS011;33403;43.608;1.458;2022-11-24T16:22:38;13.57;;;4.07;;
47659;SDS011;33403;43.608;1.458;2022-11-24T16:25:04;14.07;;;4.45;;
47659;SDS011;33403;43.608;1.458;2022-11-24T16:27:31;15.88;;;4.30;;
47659;SDS011;33403;43.608;1.458;2022-11-24T16:29:57;12.82;;;5.00;;
47659;SDS011;33403;43.608;1.458;2022-11-24T16:32:23;13.50;;;5.22;;
47659;SDS011;33403;43.608;1.458;2022-11-24T16:34:49;14.30;;;4.70;;